sensor_id;sensor_type;location;lat;lon;timestamp;temperature;humidity
680;DHT22;322;48.846;9.230;2023-08-06T00:00:29;14.90;99.90
680;DHT22;322;48.846;9.230;2023-08-06T00:02:58;14.90;99.90
680;DHT22;322;48.846;9.230;2023-08-06T00:05:28;15.10;99.90
680;DHT22;322;48.846;9.230;2023-08-06T00:07:56;15.20;99.90
680;DHT22;322;48.846;9.230;2023-08-06T00:10:24;15.30;99.90
680;DHT22;322;48.846;9.230;2023-08-06T00:12:52;15.20;99.90
680;DHT22;322;48.846;9.230;2023-08-06T00:15:20;15.20;99.90
680;DHT22;322;48.846;9.230;2023-08-06T00:17:49;15.20;99.90
680;DHT22;322;48.846;9.230;2023-08-06T00:20:17;15.10;99.90
680;DHT22;322;48.846;9.230;2023-08-06T00:22:47;15.10;99.90
680;DHT22;322;48.846;9.230;2023-08-06T00:25:15;15.10;99.90
680;DHT22;322;48.846;9.230;2023-08-06T00:27:43;15.10;99.90
680;DHT22;322;48.846;9.230;2023-08-06T00:30:11;14.90;99.90
680;DHT22;322;48.846;9.230;2023-08-06T00:32:39;14.70;99.90
680;DHT22;322;48.846;9.230;2023-08-06T00:35:07;14.70;99.90
680;DHT22;322;48.846;9.230;2023-08-06T00:37:35;14.70;99.90
680;DHT22;322;48.846;9.230;2023-08-06T00:40:06;14.70;99.90
680;DHT22;322;48.846;9.230;2023-08-06T00:42:34;14.60;99.90
680;DHT22;322;48.846;9.230;2023-08-06T00:45:03;14.40;99.90
680;DHT22;322;48.846;9.230;2023-08-06T00:47:31;14.30;99.90
680;DHT22;322;48.846;9.230;2023-08-06T00:49:59;14.30;99.90
680;DHT22;322;48.846;9.230;2023-08-06T00:52:27;14.20;99.90
680;DHT22;322;48.846;9.230;2023-08-06T00:54:56;14.30;99.90
680;DHT22;322;48.846;9.230;2023-08-06T00:57:25;14.30;99.90
680;DHT22;322;48.846;9.230;2023-08-06T00:59:54;14.40;99.90
680;DHT22;322;48.846;9.230;2023-08-06T01:02:22;14.40;99.90
680;DHT22;322;48.846;9.230;2023-08-06T01:04:50;14.40;99.90
680;DHT22;322;48.846;9.230;2023-08-06T01:07:25;14.30;99.90
680;DHT22;322;48.846;9.230;2023-08-06T01:10:11;14.40;99.90
680;DHT22;322;48.846;9.230;2023-08-06T01:12:48;14.50;99.90
680;DHT22;322;48.846;9.230;2023-08-06T01:15:21;14.40;99.90
680;DHT22;322;48.846;9.230;2023-08-06T01:17:50;14.30;99.90
680;DHT22;322;48.846;9.230;2023-08-06T01:20:18;14.30;99.90
680;DHT22;322;48.846;9.230;2023-08-06T01:22:47;14.30;99.90
680;DHT22;322;48.846;9.230;2023-08-06T01:25:16;14.30;99.90
680;DHT22;322;48.846;9.230;2023-08-06T01:27:49;14.30;99.90
680;DHT22;322;48.846;9.230;2023-08-06T01:30:19;14.30;99.90
680;DHT22;322;48.846;9.230;2023-08-06T01:32:52;14.30;99.90
680;DHT22;322;48.846;9.230;2023-08-06T01:35:22;14.50;99.90
680;DHT22;322;48.846;9.230;2023-08-06T01:37:51;14.60;99.90
680;DHT22;322;48.846;9.230;2023-08-06T01:40:19;14.60;99.90
680;DHT22;322;48.846;9.230;2023-08-06T01:42:47;14.70;99.90
680;DHT22;322;48.846;9.230;2023-08-06T01:45:16;14.70;99.90
680;DHT22;322;48.846;9.230;2023-08-06T01:47:44;14.70;99.90
680;DHT22;322;48.846;9.230;2023-08-06T01:50:12;14.70;99.90
680;DHT22;322;48.846;9.230;2023-08-06T01:52:40;14.80;99.90
680;DHT22;322;48.846;9.230;2023-08-06T01:55:09;14.80;99.90
680;DHT22;322;48.846;9.230;2023-08-06T01:57:37;14.70;99.90
680;DHT22;322;48.846;9.230;2023-08-06T02:00:06;14.80;99.90
680;DHT22;322;48.846;9.230;2023-08-06T02:02:35;14.80;99.90
680;DHT22;322;48.846;9.230;2023-08-06T02:05:03;14.80;99.90
680;DHT22;322;48.846;9.230;2023-08-06T02:07:31;14.70;99.90
680;DHT22;322;48.846;9.230;2023-08-06T02:09:59;14.70;99.90
680;DHT22;322;48.846;9.230;2023-08-06T02:12:29;14.70;99.90
680;DHT22;322;48.846;9.230;2023-08-06T02:14:57;14.60;99.90
680;DHT22;322;48.846;9.230;2023-08-06T02:17:25;14.60;99.90
680;DHT22;322;48.846;9.230;2023-08-06T02:19:53;14.50;99.90
680;DHT22;322;48.846;9.230;2023-08-06T02:22:21;14.50;99.90
680;DHT22;322;48.846;9.230;2023-08-06T02:24:49;14.40;99.90
680;DHT22;322;48.846;9.230;2023-08-06T02:27:17;14.40;99.90
680;DHT22;322;48.846;9.230;2023-08-06T02:29:47;14.30;99.90
680;DHT22;322;48.846;9.230;2023-08-06T02:32:15;14.20;99.90
680;DHT22;322;48.846;9.230;2023-08-06T02:34:43;14.10;99.90
680;DHT22;322;48.846;9.230;2023-08-06T02:37:11;14.10;99.90
680;DHT22;322;48.846;9.230;2023-08-06T02:39:39;14.10;99.90
680;DHT22;322;48.846;9.230;2023-08-06T02:42:07;14.10;99.90
680;DHT22;322;48.846;9.230;2023-08-06T02:44:35;14.00;99.90
680;DHT22;322;48.846;9.230;2023-08-06T02:47:05;14.10;99.90
680;DHT22;322;48.846;9.230;2023-08-06T02:49:33;14.10;99.90
680;DHT22;322;48.846;9.230;2023-08-06T02:52:01;14.10;99.90
680;DHT22;322;48.846;9.230;2023-08-06T02:54:29;14.10;99.90
680;DHT22;322;48.846;9.230;2023-08-06T02:56:57;14.10;99.90
680;DHT22;322;48.846;9.230;2023-08-06T02:59:25;14.00;99.90
680;DHT22;322;48.846;9.230;2023-08-06T03:01:53;13.90;99.90
680;DHT22;322;48.846;9.230;2023-08-06T03:04:23;13.90;99.90
680;DHT22;322;48.846;9.230;2023-08-06T03:06:51;13.70;99.90
680;DHT22;322;48.846;9.230;2023-08-06T03:09:19;13.70;99.90
680;DHT22;322;48.846;9.230;2023-08-06T03:11:47;13.60;99.90
680;DHT22;322;48.846;9.230;2023-08-06T03:14:16;13.60;99.90
680;DHT22;322;48.846;9.230;2023-08-06T03:16:44;13.60;99.90
680;DHT22;322;48.846;9.230;2023-08-06T03:19:12;13.60;99.90
680;DHT22;322;48.846;9.230;2023-08-06T03:21:41;13.60;99.90
680;DHT22;322;48.846;9.230;2023-08-06T03:24:09;13.70;99.90
680;DHT22;322;48.846;9.230;2023-08-06T03:26:37;13.80;99.90
680;DHT22;322;48.846;9.230;2023-08-06T03:29:05;13.70;99.90
680;DHT22;322;48.846;9.230;2023-08-06T03:31:33;13.80;99.90
680;DHT22;322;48.846;9.230;2023-08-06T03:34:01;13.80;99.90
680;DHT22;322;48.846;9.230;2023-08-06T03:36:29;13.80;99.90
680;DHT22;322;48.846;9.230;2023-08-06T03:38:59;13.90;99.90
680;DHT22;322;48.846;9.230;2023-08-06T03:41:27;13.90;99.90
680;DHT22;322;48.846;9.230;2023-08-06T03:43:55;14.00;99.90
680;DHT22;322;48.846;9.230;2023-08-06T03:46:23;13.90;99.90
680;DHT22;322;48.846;9.230;2023-08-06T03:48:52;14.00;99.90
680;DHT22;322;48.846;9.230;2023-08-06T03:51:20;14.00;99.90
680;DHT22;322;48.846;9.230;2023-08-06T03:53:48;13.90;99.90
680;DHT22;322;48.846;9.230;2023-08-06T03:56:18;14.00;99.90
680;DHT22;322;48.846;9.230;2023-08-06T03:58:46;14.00;99.90
680;DHT22;322;48.846;9.230;2023-08-06T04:01:14;13.90;99.90
680;DHT22;322;48.846;9.230;2023-08-06T04:03:42;13.90;99.90
680;DHT22;322;48.846;9.230;2023-08-06T04:06:10;14.00;99.90
680;DHT22;322;48.846;9.230;2023-08-06T04:08:38;14.00;99.90
680;DHT22;322;48.846;9.230;2023-08-06T04:11:06;14.00;99.90
680;DHT22;322;48.846;9.230;2023-08-06T04:13:36;14.00;99.90
680;DHT22;322;48.846;9.230;2023-08-06T04:16:04;14.00;99.90
680;DHT22;322;48.846;9.230;2023-08-06T04:18:33;14.10;99.90
680;DHT22;322;48.846;9.230;2023-08-06T04:21:02;14.10;99.90
680;DHT22;322;48.846;9.230;2023-08-06T04:23:30;14.10;99.90
680;DHT22;322;48.846;9.230;2023-08-06T04:25:58;14.20;99.90
680;DHT22;322;48.846;9.230;2023-08-06T04:28:26;14.10;99.90
680;DHT22;322;48.846;9.230;2023-08-06T04:30:56;14.10;99.90
680;DHT22;322;48.846;9.230;2023-08-06T04:33:24;14.10;99.90
680;DHT22;322;48.846;9.230;2023-08-06T04:35:54;14.10;99.90
680;DHT22;322;48.846;9.230;2023-08-06T04:38:24;14.20;99.90
680;DHT22;322;48.846;9.230;2023-08-06T04:40:52;14.20;99.90
680;DHT22;322;48.846;9.230;2023-08-06T04:43:21;14.20;99.90
680;DHT22;322;48.846;9.230;2023-08-06T04:45:49;14.30;99.90
680;DHT22;322;48.846;9.230;2023-08-06T04:48:19;14.40;99.90
680;DHT22;322;48.846;9.230;2023-08-06T04:50:48;14.30;99.90
680;DHT22;322;48.846;9.230;2023-08-06T04:53:18;14.30;99.90
680;DHT22;322;48.846;9.230;2023-08-06T04:55:47;14.30;99.90
680;DHT22;322;48.846;9.230;2023-08-06T04:58:15;14.40;99.90
680;DHT22;322;48.846;9.230;2023-08-06T05:00:44;14.40;99.90
680;DHT22;322;48.846;9.230;2023-08-06T05:03:12;14.40;99.90
680;DHT22;322;48.846;9.230;2023-08-06T05:05:42;14.30;99.90
680;DHT22;322;48.846;9.230;2023-08-06T05:08:14;14.30;99.90
680;DHT22;322;48.846;9.230;2023-08-06T05:10:44;14.30;99.90
680;DHT22;322;48.846;9.230;2023-08-06T05:13:12;14.40;99.90
680;DHT22;322;48.846;9.230;2023-08-06T05:15:41;14.40;99.90
680;DHT22;322;48.846;9.230;2023-08-06T05:18:09;14.40;99.90
680;DHT22;322;48.846;9.230;2023-08-06T05:20:39;14.40;99.90
680;DHT22;322;48.846;9.230;2023-08-06T05:23:08;14.50;99.90
680;DHT22;322;48.846;9.230;2023-08-06T05:25:37;14.60;99.90
680;DHT22;322;48.846;9.230;2023-08-06T05:28:05;14.60;99.90
680;DHT22;322;48.846;9.230;2023-08-06T05:30:33;14.80;99.90
680;DHT22;322;48.846;9.230;2023-08-06T05:33:03;15.00;99.90
680;DHT22;322;48.846;9.230;2023-08-06T05:35:31;15.00;99.90
680;DHT22;322;48.846;9.230;2023-08-06T05:37:59;15.10;99.90
680;DHT22;322;48.846;9.230;2023-08-06T05:40:29;15.20;99.90
680;DHT22;322;48.846;9.230;2023-08-06T05:42:57;15.30;99.90
680;DHT22;322;48.846;9.230;2023-08-06T05:45:25;15.30;99.90
680;DHT22;322;48.846;9.230;2023-08-06T05:47:53;15.40;99.90
680;DHT22;322;48.846;9.230;2023-08-06T05:50:24;15.60;99.90
680;DHT22;322;48.846;9.230;2023-08-06T05:52:52;15.60;99.90
680;DHT22;322;48.846;9.230;2023-08-06T05:55:20;15.60;99.90
680;DHT22;322;48.846;9.230;2023-08-06T05:57:50;15.40;99.90
680;DHT22;322;48.846;9.230;2023-08-06T06:00:20;15.30;99.90
680;DHT22;322;48.846;9.230;2023-08-06T06:02:48;15.40;99.90
680;DHT22;322;48.846;9.230;2023-08-06T06:05:16;15.40;99.90
680;DHT22;322;48.846;9.230;2023-08-06T06:07:44;15.40;99.90
680;DHT22;322;48.846;9.230;2023-08-06T06:10:12;15.30;99.90
680;DHT22;322;48.846;9.230;2023-08-06T06:12:40;15.30;99.90
680;DHT22;322;48.846;9.230;2023-08-06T06:15:10;15.30;99.90
680;DHT22;322;48.846;9.230;2023-08-06T06:17:39;15.30;99.90
680;DHT22;322;48.846;9.230;2023-08-06T06:20:08;15.20;99.90
680;DHT22;322;48.846;9.230;2023-08-06T06:22:36;15.30;99.90
680;DHT22;322;48.846;9.230;2023-08-06T06:25:05;15.30;99.90
680;DHT22;322;48.846;9.230;2023-08-06T06:27:33;15.30;99.90
680;DHT22;322;48.846;9.230;2023-08-06T06:30:01;15.20;99.90
680;DHT22;322;48.846;9.230;2023-08-06T06:32:32;15.20;99.90
680;DHT22;322;48.846;9.230;2023-08-06T06:35:00;15.00;99.90
680;DHT22;322;48.846;9.230;2023-08-06T06:37:28;14.90;99.90
680;DHT22;322;48.846;9.230;2023-08-06T06:39:56;14.80;99.90
680;DHT22;322;48.846;9.230;2023-08-06T06:42:24;14.70;99.90
680;DHT22;322;48.846;9.230;2023-08-06T06:44:53;14.70;99.90
680;DHT22;322;48.846;9.230;2023-08-06T06:47:21;14.70;99.90
680;DHT22;322;48.846;9.230;2023-08-06T06:49:50;14.60;99.90
680;DHT22;322;48.846;9.230;2023-08-06T06:52:18;14.70;99.90
680;DHT22;322;48.846;9.230;2023-08-06T06:54:46;14.60;99.90
680;DHT22;322;48.846;9.230;2023-08-06T06:57:14;14.70;99.90
680;DHT22;322;48.846;9.230;2023-08-06T06:59:42;14.70;99.90
680;DHT22;322;48.846;9.230;2023-08-06T07:02:10;14.70;99.90
680;DHT22;322;48.846;9.230;2023-08-06T07:04:38;14.70;99.90
680;DHT22;322;48.846;9.230;2023-08-06T07:07:08;14.60;99.90
680;DHT22;322;48.846;9.230;2023-08-06T07:09:36;14.60;99.90
680;DHT22;322;48.846;9.230;2023-08-06T07:12:05;14.70;99.90
680;DHT22;322;48.846;9.230;2023-08-06T07:14:33;14.80;99.90
680;DHT22;322;48.846;9.230;2023-08-06T07:17:01;14.90;99.90
680;DHT22;322;48.846;9.230;2023-08-06T07:19:29;14.90;99.90
680;DHT22;322;48.846;9.230;2023-08-06T07:21:58;14.90;99.90
680;DHT22;322;48.846;9.230;2023-08-06T07:24:27;14.90;99.90
680;DHT22;322;48.846;9.230;2023-08-06T07:26:55;14.80;99.90
680;DHT22;322;48.846;9.230;2023-08-06T07:29:23;14.90;99.90
680;DHT22;322;48.846;9.230;2023-08-06T07:31:51;14.90;99.90
680;DHT22;322;48.846;9.230;2023-08-06T07:34:19;14.80;99.90
680;DHT22;322;48.846;9.230;2023-08-06T07:36:47;14.70;99.90
680;DHT22;322;48.846;9.230;2023-08-06T07:39:15;14.60;99.90
680;DHT22;322;48.846;9.230;2023-08-06T07:41:45;14.60;99.90
680;DHT22;322;48.846;9.230;2023-08-06T07:44:13;14.60;99.90
680;DHT22;322;48.846;9.230;2023-08-06T07:46:41;14.60;99.90
680;DHT22;322;48.846;9.230;2023-08-06T07:49:09;14.60;99.90
680;DHT22;322;48.846;9.230;2023-08-06T07:51:38;14.80;99.90
680;DHT22;322;48.846;9.230;2023-08-06T07:54:07;15.00;99.90
680;DHT22;322;48.846;9.230;2023-08-06T07:56:35;15.30;99.90
680;DHT22;322;48.846;9.230;2023-08-06T07:59:05;15.40;99.90
680;DHT22;322;48.846;9.230;2023-08-06T08:01:33;15.50;99.90
680;DHT22;322;48.846;9.230;2023-08-06T08:04:01;15.60;99.90
680;DHT22;322;48.846;9.230;2023-08-06T08:06:29;15.60;99.90
680;DHT22;322;48.846;9.230;2023-08-06T08:08:57;15.60;99.90
680;DHT22;322;48.846;9.230;2023-08-06T08:11:26;15.50;99.90
680;DHT22;322;48.846;9.230;2023-08-06T08:13:54;15.50;99.90
680;DHT22;322;48.846;9.230;2023-08-06T08:16:23;15.70;99.90
680;DHT22;322;48.846;9.230;2023-08-06T08:18:51;15.90;99.90
680;DHT22;322;48.846;9.230;2023-08-06T08:21:19;16.20;99.90
680;DHT22;322;48.846;9.230;2023-08-06T08:23:47;16.40;99.90
680;DHT22;322;48.846;9.230;2023-08-06T08:26:15;16.70;99.90
680;DHT22;322;48.846;9.230;2023-08-06T08:28:43;17.00;99.90
680;DHT22;322;48.846;9.230;2023-08-06T08:31:12;17.30;99.90
680;DHT22;322;48.846;9.230;2023-08-06T08:33:41;17.60;99.90
680;DHT22;322;48.846;9.230;2023-08-06T08:36:09;17.50;99.90
680;DHT22;322;48.846;9.230;2023-08-06T08:38:37;17.70;99.90
680;DHT22;322;48.846;9.230;2023-08-06T08:41:06;17.60;99.90
680;DHT22;322;48.846;9.230;2023-08-06T08:43:34;17.80;99.90
680;DHT22;322;48.846;9.230;2023-08-06T08:46:04;17.90;99.90
680;DHT22;322;48.846;9.230;2023-08-06T08:48:34;17.60;99.90
680;DHT22;322;48.846;9.230;2023-08-06T08:51:04;17.80;99.90
680;DHT22;322;48.846;9.230;2023-08-06T08:53:35;18.10;99.90
680;DHT22;322;48.846;9.230;2023-08-06T08:56:06;17.90;99.90
680;DHT22;322;48.846;9.230;2023-08-06T08:58:34;17.70;99.90
680;DHT22;322;48.846;9.230;2023-08-06T09:01:02;17.50;99.90
680;DHT22;322;48.846;9.230;2023-08-06T09:03:31;17.30;99.90
680;DHT22;322;48.846;9.230;2023-08-06T09:06:03;16.80;99.90
680;DHT22;322;48.846;9.230;2023-08-06T09:08:39;16.40;99.90
680;DHT22;322;48.846;9.230;2023-08-06T09:11:09;16.10;99.90
680;DHT22;322;48.846;9.230;2023-08-06T09:13:37;15.90;99.90
680;DHT22;322;48.846;9.230;2023-08-06T09:16:05;15.70;99.90
680;DHT22;322;48.846;9.230;2023-08-06T09:18:33;15.50;99.90
680;DHT22;322;48.846;9.230;2023-08-06T09:21:03;15.40;99.90
680;DHT22;322;48.846;9.230;2023-08-06T09:23:31;15.20;99.90
680;DHT22;322;48.846;9.230;2023-08-06T09:26:00;15.20;99.90
680;DHT22;322;48.846;9.230;2023-08-06T09:28:37;15.30;99.90
680;DHT22;322;48.846;9.230;2023-08-06T09:31:06;15.50;99.90
680;DHT22;322;48.846;9.230;2023-08-06T09:33:36;15.60;99.90
680;DHT22;322;48.846;9.230;2023-08-06T09:36:09;15.70;99.90
680;DHT22;322;48.846;9.230;2023-08-06T09:38:38;15.90;99.90
680;DHT22;322;48.846;9.230;2023-08-06T09:41:07;16.00;99.90
680;DHT22;322;48.846;9.230;2023-08-06T09:43:42;15.90;99.90
680;DHT22;322;48.846;9.230;2023-08-06T09:46:13;15.80;99.90
680;DHT22;322;48.846;9.230;2023-08-06T09:48:45;15.70;99.90
680;DHT22;322;48.846;9.230;2023-08-06T09:51:15;15.60;99.90
680;DHT22;322;48.846;9.230;2023-08-06T09:53:45;15.60;99.90
680;DHT22;322;48.846;9.230;2023-08-06T09:56:14;15.80;99.90
680;DHT22;322;48.846;9.230;2023-08-06T09:58:44;15.80;99.90
680;DHT22;322;48.846;9.230;2023-08-06T10:01:16;15.80;99.90
680;DHT22;322;48.846;9.230;2023-08-06T10:03:44;15.60;99.90
680;DHT22;322;48.846;9.230;2023-08-06T10:06:14;15.40;99.90
680;DHT22;322;48.846;9.230;2023-08-06T10:08:42;15.20;99.90
680;DHT22;322;48.846;9.230;2023-08-06T10:11:12;15.30;99.90
680;DHT22;322;48.846;9.230;2023-08-06T10:13:40;15.50;99.90
680;DHT22;322;48.846;9.230;2023-08-06T10:16:09;15.50;99.90
680;DHT22;322;48.846;9.230;2023-08-06T10:18:38;15.50;99.90
680;DHT22;322;48.846;9.230;2023-08-06T10:21:07;15.70;99.90
680;DHT22;322;48.846;9.230;2023-08-06T10:23:40;16.00;99.90
680;DHT22;322;48.846;9.230;2023-08-06T10:26:08;16.30;99.90
680;DHT22;322;48.846;9.230;2023-08-06T10:28:37;16.50;99.90
680;DHT22;322;48.846;9.230;2023-08-06T10:31:06;16.40;99.90
680;DHT22;322;48.846;9.230;2023-08-06T10:33:41;16.40;99.90
680;DHT22;322;48.846;9.230;2023-08-06T10:36:10;16.30;99.90
680;DHT22;322;48.846;9.230;2023-08-06T10:38:47;16.30;99.90
680;DHT22;322;48.846;9.230;2023-08-06T10:41:17;16.40;99.90
680;DHT22;322;48.846;9.230;2023-08-06T10:43:47;16.60;99.90
680;DHT22;322;48.846;9.230;2023-08-06T10:46:27;16.50;99.90
680;DHT22;322;48.846;9.230;2023-08-06T10:48:55;16.50;99.90
680;DHT22;322;48.846;9.230;2023-08-06T10:51:24;16.60;99.90
680;DHT22;322;48.846;9.230;2023-08-06T10:53:53;16.70;99.90
680;DHT22;322;48.846;9.230;2023-08-06T10:56:24;16.80;99.90
680;DHT22;322;48.846;9.230;2023-08-06T10:58:54;16.80;99.90
680;DHT22;322;48.846;9.230;2023-08-06T11:01:23;16.70;99.90
680;DHT22;322;48.846;9.230;2023-08-06T11:03:52;16.50;99.90
680;DHT22;322;48.846;9.230;2023-08-06T11:06:21;16.40;99.90
680;DHT22;322;48.846;9.230;2023-08-06T11:08:51;16.10;99.90
680;DHT22;322;48.846;9.230;2023-08-06T11:11:22;15.80;99.90
680;DHT22;322;48.846;9.230;2023-08-06T11:13:51;15.40;99.90
680;DHT22;322;48.846;9.230;2023-08-06T11:16:21;15.20;99.90
680;DHT22;322;48.846;9.230;2023-08-06T11:18:52;15.00;99.90
680;DHT22;322;48.846;9.230;2023-08-06T11:21:21;14.80;99.90
680;DHT22;322;48.846;9.230;2023-08-06T11:23:51;14.90;99.90
680;DHT22;322;48.846;9.230;2023-08-06T11:26:21;15.00;99.90
680;DHT22;322;48.846;9.230;2023-08-06T11:28:50;15.10;99.90
680;DHT22;322;48.846;9.230;2023-08-06T11:31:21;15.10;99.90
680;DHT22;322;48.846;9.230;2023-08-06T11:33:50;15.00;99.90
680;DHT22;322;48.846;9.230;2023-08-06T11:36:29;14.90;99.90
680;DHT22;322;48.846;9.230;2023-08-06T11:38:57;15.00;99.90
680;DHT22;322;48.846;9.230;2023-08-06T11:41:27;15.10;99.90
680;DHT22;322;48.846;9.230;2023-08-06T11:43:56;15.30;99.90
680;DHT22;322;48.846;9.230;2023-08-06T11:46:24;15.40;99.90
680;DHT22;322;48.846;9.230;2023-08-06T11:48:53;15.50;99.90
680;DHT22;322;48.846;9.230;2023-08-06T11:51:22;15.60;99.90
680;DHT22;322;48.846;9.230;2023-08-06T11:53:55;15.50;99.90
680;DHT22;322;48.846;9.230;2023-08-06T11:56:23;15.30;99.90
680;DHT22;322;48.846;9.230;2023-08-06T11:58:54;15.10;99.90
680;DHT22;322;48.846;9.230;2023-08-06T12:01:22;15.00;99.90
680;DHT22;322;48.846;9.230;2023-08-06T12:03:51;14.80;99.90
680;DHT22;322;48.846;9.230;2023-08-06T12:06:19;14.70;99.90
680;DHT22;322;48.846;9.230;2023-08-06T12:08:47;14.60;99.90
680;DHT22;322;48.846;9.230;2023-08-06T12:11:17;14.50;99.90
680;DHT22;322;48.846;9.230;2023-08-06T12:13:45;14.40;99.90
680;DHT22;322;48.846;9.230;2023-08-06T12:16:15;14.30;99.90
680;DHT22;322;48.846;9.230;2023-08-06T12:18:44;14.20;99.90
680;DHT22;322;48.846;9.230;2023-08-06T12:21:12;14.00;99.90
680;DHT22;322;48.846;9.230;2023-08-06T12:23:40;14.00;99.90
680;DHT22;322;48.846;9.230;2023-08-06T12:26:08;14.00;99.90
680;DHT22;322;48.846;9.230;2023-08-06T12:28:36;14.00;99.90
680;DHT22;322;48.846;9.230;2023-08-06T12:31:05;14.00;99.90
680;DHT22;322;48.846;9.230;2023-08-06T12:33:34;14.00;99.90
680;DHT22;322;48.846;9.230;2023-08-06T12:36:03;14.10;99.90
680;DHT22;322;48.846;9.230;2023-08-06T12:38:31;14.20;99.90
680;DHT22;322;48.846;9.230;2023-08-06T12:41:00;14.30;99.90
680;DHT22;322;48.846;9.230;2023-08-06T12:43:28;14.50;99.90
680;DHT22;322;48.846;9.230;2023-08-06T12:45:57;14.60;99.90
680;DHT22;322;48.846;9.230;2023-08-06T12:48:25;14.80;99.90
680;DHT22;322;48.846;9.230;2023-08-06T12:50:54;15.10;99.90
680;DHT22;322;48.846;9.230;2023-08-06T12:53:22;15.40;99.90
680;DHT22;322;48.846;9.230;2023-08-06T12:55:50;15.60;99.90
680;DHT22;322;48.846;9.230;2023-08-06T12:58:18;15.80;99.90
680;DHT22;322;48.846;9.230;2023-08-06T13:00:46;15.90;99.90
680;DHT22;322;48.846;9.230;2023-08-06T13:03:14;15.90;99.90
680;DHT22;322;48.846;9.230;2023-08-06T13:05:42;15.90;99.90
680;DHT22;322;48.846;9.230;2023-08-06T13:08:13;16.10;99.90
680;DHT22;322;48.846;9.230;2023-08-06T13:10:41;16.10;99.90
680;DHT22;322;48.846;9.230;2023-08-06T13:13:09;16.20;99.90
680;DHT22;322;48.846;9.230;2023-08-06T13:15:37;16.30;99.90
680;DHT22;322;48.846;9.230;2023-08-06T13:18:05;16.50;99.90
680;DHT22;322;48.846;9.230;2023-08-06T13:20:34;16.60;99.90
680;DHT22;322;48.846;9.230;2023-08-06T13:23:02;16.90;99.90
680;DHT22;322;48.846;9.230;2023-08-06T13:25:31;17.10;99.90
680;DHT22;322;48.846;9.230;2023-08-06T13:28:03;17.70;99.90
680;DHT22;322;48.846;9.230;2023-08-06T13:30:31;18.00;99.90
680;DHT22;322;48.846;9.230;2023-08-06T13:33:01;17.70;99.90
680;DHT22;322;48.846;9.230;2023-08-06T13:35:31;17.40;99.90
680;DHT22;322;48.846;9.230;2023-08-06T13:37:59;17.30;99.90
680;DHT22;322;48.846;9.230;2023-08-06T13:40:33;17.20;99.90
680;DHT22;322;48.846;9.230;2023-08-06T13:43:01;17.20;99.90
680;DHT22;322;48.846;9.230;2023-08-06T13:45:29;17.40;99.90
680;DHT22;322;48.846;9.230;2023-08-06T13:47:58;17.30;99.90
680;DHT22;322;48.846;9.230;2023-08-06T13:50:26;17.10;99.90
680;DHT22;322;48.846;9.230;2023-08-06T13:52:54;17.00;99.90
680;DHT22;322;48.846;9.230;2023-08-06T13:55:23;16.80;99.90
680;DHT22;322;48.846;9.230;2023-08-06T13:57:52;16.80;99.90
680;DHT22;322;48.846;9.230;2023-08-06T14:00:20;16.90;99.90
680;DHT22;322;48.846;9.230;2023-08-06T14:02:48;16.90;99.90
680;DHT22;322;48.846;9.230;2023-08-06T14:05:16;16.90;99.90
680;DHT22;322;48.846;9.230;2023-08-06T14:07:44;17.10;99.90
680;DHT22;322;48.846;9.230;2023-08-06T14:10:12;17.00;99.90
680;DHT22;322;48.846;9.230;2023-08-06T14:12:41;16.80;99.90
680;DHT22;322;48.846;9.230;2023-08-06T14:15:15;16.60;99.90
680;DHT22;322;48.846;9.230;2023-08-06T14:17:43;16.10;99.90
680;DHT22;322;48.846;9.230;2023-08-06T14:20:11;16.00;99.90
680;DHT22;322;48.846;9.230;2023-08-06T14:22:39;16.10;99.90
680;DHT22;322;48.846;9.230;2023-08-06T14:25:07;16.10;99.90
680;DHT22;322;48.846;9.230;2023-08-06T14:27:35;16.20;99.90
680;DHT22;322;48.846;9.230;2023-08-06T14:30:06;16.30;99.90
680;DHT22;322;48.846;9.230;2023-08-06T14:32:35;16.40;99.90
680;DHT22;322;48.846;9.230;2023-08-06T14:35:04;16.70;99.90
680;DHT22;322;48.846;9.230;2023-08-06T14:37:32;16.90;99.90
680;DHT22;322;48.846;9.230;2023-08-06T14:40:00;17.20;99.90
680;DHT22;322;48.846;9.230;2023-08-06T14:42:29;17.40;99.90
680;DHT22;322;48.846;9.230;2023-08-06T14:44:57;17.30;99.90
680;DHT22;322;48.846;9.230;2023-08-06T14:47:25;17.30;99.90
680;DHT22;322;48.846;9.230;2023-08-06T14:49:54;17.10;99.90
680;DHT22;322;48.846;9.230;2023-08-06T14:52:22;17.10;99.90
680;DHT22;322;48.846;9.230;2023-08-06T14:54:50;17.00;99.90
680;DHT22;322;48.846;9.230;2023-08-06T14:57:18;16.80;99.90
680;DHT22;322;48.846;9.230;2023-08-06T14:59:48;16.80;99.90
680;DHT22;322;48.846;9.230;2023-08-06T15:02:16;16.90;99.90
680;DHT22;322;48.846;9.230;2023-08-06T15:04:44;17.10;99.90
680;DHT22;322;48.846;9.230;2023-08-06T15:07:14;17.20;99.90
680;DHT22;322;48.846;9.230;2023-08-06T15:09:42;17.10;99.90
680;DHT22;322;48.846;9.230;2023-08-06T15:12:30;17.00;99.90
680;DHT22;322;48.846;9.230;2023-08-06T15:14:58;16.80;99.90
680;DHT22;322;48.846;9.230;2023-08-06T15:17:27;16.50;99.90
680;DHT22;322;48.846;9.230;2023-08-06T15:19:57;16.30;99.90
680;DHT22;322;48.846;9.230;2023-08-06T15:22:27;16.10;99.90
680;DHT22;322;48.846;9.230;2023-08-06T15:24:55;15.90;99.90
680;DHT22;322;48.846;9.230;2023-08-06T15:27:24;15.80;99.90
680;DHT22;322;48.846;9.230;2023-08-06T15:29:52;15.60;99.90
680;DHT22;322;48.846;9.230;2023-08-06T15:32:20;15.60;99.90
680;DHT22;322;48.846;9.230;2023-08-06T15:34:49;15.80;99.90
680;DHT22;322;48.846;9.230;2023-08-06T15:37:18;16.10;99.90
680;DHT22;322;48.846;9.230;2023-08-06T15:39:47;16.10;99.90
680;DHT22;322;48.846;9.230;2023-08-06T15:42:15;16.20;99.90
680;DHT22;322;48.846;9.230;2023-08-06T15:44:43;16.20;99.90
680;DHT22;322;48.846;9.230;2023-08-06T15:47:12;16.20;99.90
680;DHT22;322;48.846;9.230;2023-08-06T15:49:40;16.30;99.90
680;DHT22;322;48.846;9.230;2023-08-06T15:52:08;16.20;99.90
680;DHT22;322;48.846;9.230;2023-08-06T15:54:36;16.30;99.90
680;DHT22;322;48.846;9.230;2023-08-06T15:57:06;16.40;99.90
680;DHT22;322;48.846;9.230;2023-08-06T15:59:34;16.40;99.90
680;DHT22;322;48.846;9.230;2023-08-06T16:02:02;16.40;99.90
680;DHT22;322;48.846;9.230;2023-08-06T16:04:31;16.30;99.90
680;DHT22;322;48.846;9.230;2023-08-06T16:06:59;16.30;99.90
680;DHT22;322;48.846;9.230;2023-08-06T16:09:27;16.30;99.90
680;DHT22;322;48.846;9.230;2023-08-06T16:11:55;16.30;99.90
680;DHT22;322;48.846;9.230;2023-08-06T16:14:25;16.30;99.90
680;DHT22;322;48.846;9.230;2023-08-06T16:16:53;16.20;99.90
680;DHT22;322;48.846;9.230;2023-08-06T16:19:21;16.20;99.90
680;DHT22;322;48.846;9.230;2023-08-06T16:21:49;16.00;99.90
680;DHT22;322;48.846;9.230;2023-08-06T16:24:17;15.80;99.90
680;DHT22;322;48.846;9.230;2023-08-06T16:26:46;15.60;99.90
680;DHT22;322;48.846;9.230;2023-08-06T16:29:14;15.20;99.90
680;DHT22;322;48.846;9.230;2023-08-06T16:31:43;15.00;99.90
680;DHT22;322;48.846;9.230;2023-08-06T16:34:11;14.90;99.90
680;DHT22;322;48.846;9.230;2023-08-06T16:36:40;14.90;99.90
680;DHT22;322;48.846;9.230;2023-08-06T16:39:08;14.90;99.90
680;DHT22;322;48.846;9.230;2023-08-06T16:41:36;14.80;99.90
680;DHT22;322;48.846;9.230;2023-08-06T16:44:04;14.60;99.90